Date,TemperatureHighF,TemperatureAvgF,TemperatureLowF,DewpointHighF,DewpointAvgF,DewpointLowF,HumidityHigh,HumidityAvg,HumidityLow,PressureMaxIn,PressureMinIn,WindSpeedMaxMPH,WindSpeedAvgMPH,GustSpeedMaxMPH,PrecipitationSumIn
2013-2-1,30,16,2,20,9,-4,81,72,62,30.51,30.08,12,3,0,0.01
2013-2-2,45,33,20,37,27,18,97,79,58,30.20,30.04,4,1,0,0.01
2013-2-3,45,35,23,30,27,22,96,72,49,30.21,29.76,6,2,0,0.00
2013-2-4,36,28,24,30,24,21,95,85,73,30.00,29.75,7,2,0,0.00
2013-2-5,54,39,26,33,28,25,96,69,37,30.04,29.82,7,2,0,0.00
2013-2-6,60,45,35,41,34,28,89,67,49,30.04,29.79,8,3,0,0.00
2013-2-7,42,35,29,38,30,25,88,82,77,30.22,29.86,11,3,0,0.00
2013-2-8,38,31,25,29,26,23,90,83,69,30.30,30.06,6,2,0,0.00
2013-2-9,54,40,29,40,34,28,95,79,58,30.07,29.58,9,5,0,0.00
2013-2-10,44,38,32,43,33,23,99,84,67,29.84,29.22,11,5,0,0.02
2013-2-11,42,33,26,26,23,21,85,67,50,30.14,29.85,8,2,0,0.00
2013-2-12,51,34,21,26,22,19,94,64,34,30.14,29.88,7,1,0,0.00
2013-2-13,56,38,22,31,26,20,91,64,34,29.90,29.71,6,1,0,0.00
2013-2-14,47,38,22,32,27,15,91,66,39,30.28,29.80,10,2,0,0.00
2013-2-15,37,25,16,28,18,12,91,74,44,30.35,30.23,9,2,0,0.00
2013-2-16,38,26,13,25,19,11,93,76,51,30.30,29.93,8,2,0,0.01
2013-2-17,62,42,24,36,29,21,89,63,35,29.93,29.48,9,3,0,0.00
2013-2-18,44,34,24,33,26,16,94,72,54,30.04,29.47,10,3,0,0.01
2013-2-19,32,21,13,17,6,1,77,56,28,30.32,30.05,7,3,0,0.00
2013-2-20,24,16,7,12,6,1,79,63,50,30.33,30.11,6,2,0,0.00
2013-2-21,24,22,20,21,15,9,95,78,53,30.16,29.76,7,3,0,0.00
2013-2-22,29,20,11,20,15,9,95,82,60,29.97,29.77,5,2,0,0.00
2013-2-23,40,23,7,28,18,6,93,80,57,29.96,29.75,8,3,0,0.00
2013-2-24,48,34,25,30,26,21,88,74,47,30.00,29.82,7,2,0,0.00
2013-2-25,37,30,27,28,26,24,94,84,68,30.02,29.83,7,2,0,0.00
2013-2-26,33,28,24,28,26,23,98,92,76,29.88,29.73,7,3,0,0.00
2013-2-27,42,32,25,27,25,22,96,77,51,30.06,29.85,10,3,0,0.03
2013-2-28,34,30,26,27,24,21,85,78,68,30.19,30.05,8,3,0,0.00